sensor_id;sensor_type;location;lat;lon;timestamp;pressure;altitude;pressure_sealevel;temperature;humidity
64853;BME280;56050;55.558;-4.644;2024-02-15T00:01:30;100436.38;;;10.51;73.07
64853;BME280;56050;55.558;-4.644;2024-02-15T00:03:55;100435.66;;;10.43;73.34
64853;BME280;56050;55.558;-4.644;2024-02-15T00:06:21;100428.34;;;10.37;73.40
64853;BME280;56050;55.558;-4.644;2024-02-15T00:08:46;100435.69;;;10.33;73.56
64853;BME280;56050;55.558;-4.644;2024-02-15T00:11:12;100429.16;;;10.30;73.51
64853;BME280;56050;55.558;-4.644;2024-02-15T00:13:39;100430.31;;;10.29;73.65
64853;BME280;56050;55.558;-4.644;2024-02-15T00:16:04;100426.84;;;10.29;73.72
64853;BME280;56050;55.558;-4.644;2024-02-15T00:18:31;100427.63;;;10.33;73.81
64853;BME280;56050;55.558;-4.644;2024-02-15T00:20:56;100428.34;;;10.37;73.71
64853;BME280;56050;55.558;-4.644;2024-02-15T00:23:22;100426.03;;;10.39;73.78
64853;BME280;56050;55.558;-4.644;2024-02-15T00:25:47;100419.09;;;10.45;73.53
64853;BME280;56050;55.558;-4.644;2024-02-15T00:28:13;100420.59;;;10.49;73.59
64853;BME280;56050;55.558;-4.644;2024-02-15T00:30:38;100410.19;;;10.55;73.50
64853;BME280;56050;55.558;-4.644;2024-02-15T00:33:04;100408.66;;;10.57;73.28
64853;BME280;56050;55.558;-4.644;2024-02-15T00:35:29;100409.38;;;10.61;73.32
64853;BME280;56050;55.558;-4.644;2024-02-15T00:37:54;100406.28;;;10.67;73.33
64853;BME280;56050;55.558;-4.644;2024-02-15T00:40:20;100407.41;;;10.69;73.32
64853;BME280;56050;55.558;-4.644;2024-02-15T00:42:46;100403.94;;;10.72;73.13
64853;BME280;56050;55.558;-4.644;2024-02-15T00:45:12;100400.81;;;10.77;73.08
64853;BME280;56050;55.558;-4.644;2024-02-15T00:47:38;100392.72;;;10.81;73.06
64853;BME280;56050;55.558;-4.644;2024-02-15T00:50:03;100392.69;;;10.84;73.18
64853;BME280;56050;55.558;-4.644;2024-02-15T00:52:29;100381.13;;;10.87;73.03
64853;BME280;56050;55.558;-4.644;2024-02-15T00:54:56;100386.47;;;10.91;73.05
64853;BME280;56050;55.558;-4.644;2024-02-15T00:57:22;100381.06;;;10.94;73.08
64853;BME280;56050;55.558;-4.644;2024-02-15T00:59:47;100388.38;;;10.97;73.38
64853;BME280;56050;55.558;-4.644;2024-02-15T01:02:13;100359.06;;;10.99;73.36
64853;BME280;56050;55.558;-4.644;2024-02-15T01:04:39;100362.53;;;11.03;73.57
64853;BME280;56050;55.558;-4.644;2024-02-15T01:07:05;100367.91;;;11.07;73.38
64853;BME280;56050;55.558;-4.644;2024-02-15T01:09:30;100368.25;;;11.09;73.38
64853;BME280;56050;55.558;-4.644;2024-02-15T01:11:55;100355.13;;;11.11;73.13
64853;BME280;56050;55.558;-4.644;2024-02-15T01:14:21;100348.59;;;11.12;73.36
64853;BME280;56050;55.558;-4.644;2024-02-15T01:16:46;100343.19;;;11.12;73.46
64853;BME280;56050;55.558;-4.644;2024-02-15T01:19:12;100349.38;;;11.12;73.67
64853;BME280;56050;55.558;-4.644;2024-02-15T01:21:37;100350.09;;;11.13;73.57
64853;BME280;56050;55.558;-4.644;2024-02-15T01:24:04;100344.34;;;11.14;73.66
64853;BME280;56050;55.558;-4.644;2024-02-15T01:26:32;100340.88;;;11.14;73.68
64853;BME280;56050;55.558;-4.644;2024-02-15T01:28:57;100339.72;;;11.15;73.81
64853;BME280;56050;55.558;-4.644;2024-02-15T01:31:23;100343.91;;;11.16;73.77
64853;BME280;56050;55.558;-4.644;2024-02-15T01:33:48;100340.84;;;11.17;73.88
64853;BME280;56050;55.558;-4.644;2024-02-15T01:36:14;100334.25;;;11.18;73.89
64853;BME280;56050;55.558;-4.644;2024-02-15T01:38:41;100347.38;;;11.20;73.75
64853;BME280;56050;55.558;-4.644;2024-02-15T01:41:07;100344.25;;;11.21;73.87
64853;BME280;56050;55.558;-4.644;2024-02-15T01:43:33;100336.16;;;11.21;73.83
64853;BME280;56050;55.558;-4.644;2024-02-15T01:45:59;100327.69;;;11.23;73.70
64853;BME280;56050;55.558;-4.644;2024-02-15T01:48:31;100325.00;;;11.23;73.82
64853;BME280;56050;55.558;-4.644;2024-02-15T01:50:58;100325.34;;;11.25;73.85
64853;BME280;56050;55.558;-4.644;2024-02-15T01:53:24;100329.19;;;11.28;73.96
64853;BME280;56050;55.558;-4.644;2024-02-15T01:55:53;100317.25;;;11.29;73.88
64853;BME280;56050;55.558;-4.644;2024-02-15T01:58:20;100322.63;;;11.29;73.73
64853;BME280;56050;55.558;-4.644;2024-02-15T02:00:47;100322.22;;;11.30;73.82
64853;BME280;56050;55.558;-4.644;2024-02-15T02:03:14;100318.75;;;11.30;74.08
64853;BME280;56050;55.558;-4.644;2024-02-15T02:05:42;100321.06;;;11.31;73.80
64853;BME280;56050;55.558;-4.644;2024-02-15T02:08:08;100316.81;;;11.30;74.07
64853;BME280;56050;55.558;-4.644;2024-02-15T02:10:38;100308.75;;;11.30;74.10
64853;BME280;56050;55.558;-4.644;2024-02-15T02:13:04;100313.75;;;11.32;73.90
64853;BME280;56050;55.558;-4.644;2024-02-15T02:15:34;100308.75;;;11.30;74.05
64853;BME280;56050;55.558;-4.644;2024-02-15T02:18:03;100299.50;;;11.31;73.94
64853;BME280;56050;55.558;-4.644;2024-02-15T02:20:31;100301.78;;;11.33;74.06
64853;BME280;56050;55.558;-4.644;2024-02-15T02:23:15;100300.25;;;11.32;74.23
64853;BME280;56050;55.558;-4.644;2024-02-15T02:25:42;100296.38;;;11.33;73.91
64853;BME280;56050;55.558;-4.644;2024-02-15T02:28:09;100285.59;;;11.33;74.01
64853;BME280;56050;55.558;-4.644;2024-02-15T02:30:35;100291.41;;;11.31;74.04
64853;BME280;56050;55.558;-4.644;2024-02-15T02:33:01;100289.09;;;11.30;74.08
64853;BME280;56050;55.558;-4.644;2024-02-15T02:35:27;100284.88;;;11.29;74.10
64853;BME280;56050;55.558;-4.644;2024-02-15T02:37:56;100282.56;;;11.27;73.93
64853;BME280;56050;55.558;-4.644;2024-02-15T02:40:21;100290.66;;;11.27;74.11
64853;BME280;56050;55.558;-4.644;2024-02-15T02:42:55;100290.31;;;11.25;74.23
64853;BME280;56050;55.558;-4.644;2024-02-15T02:45:26;100289.53;;;11.25;74.13
64853;BME280;56050;55.558;-4.644;2024-02-15T02:47:52;100289.94;;;11.23;74.05
64853;BME280;56050;55.558;-4.644;2024-02-15T02:50:19;100283.00;;;11.22;74.25
64853;BME280;56050;55.558;-4.644;2024-02-15T02:52:44;100281.50;;;11.21;74.28
64853;BME280;56050;55.558;-4.644;2024-02-15T02:55:10;100285.34;;;11.20;74.22
64853;BME280;56050;55.558;-4.644;2024-02-15T02:57:37;100281.88;;;11.19;74.12
64853;BME280;56050;55.558;-4.644;2024-02-15T03:00:05;100274.22;;;11.18;74.26
64853;BME280;56050;55.558;-4.644;2024-02-15T03:02:34;100271.13;;;11.16;74.53
64853;BME280;56050;55.558;-4.644;2024-02-15T03:05:04;100271.53;;;11.14;74.47
64853;BME280;56050;55.558;-4.644;2024-02-15T03:07:32;100259.63;;;11.12;74.57
64853;BME280;56050;55.558;-4.644;2024-02-15T03:09:58;100257.72;;;11.12;74.55
64853;BME280;56050;55.558;-4.644;2024-02-15T03:12:23;100258.88;;;11.11;74.49
64853;BME280;56050;55.558;-4.644;2024-02-15T03:14:52;100258.09;;;11.11;74.75
64853;BME280;56050;55.558;-4.644;2024-02-15T03:17:18;100247.31;;;11.11;74.68
64853;BME280;56050;55.558;-4.644;2024-02-15T03:19:43;100247.31;;;11.11;74.66
64853;BME280;56050;55.558;-4.644;2024-02-15T03:22:09;100250.78;;;11.11;74.90
64853;BME280;56050;55.558;-4.644;2024-02-15T03:24:34;100248.50;;;11.10;74.73
64853;BME280;56050;55.558;-4.644;2024-02-15T03:27:00;100233.84;;;11.11;74.73
64853;BME280;56050;55.558;-4.644;2024-02-15T03:29:25;100238.84;;;11.12;74.91
64853;BME280;56050;55.558;-4.644;2024-02-15T03:31:51;100241.53;;;11.12;74.77
64853;BME280;56050;55.558;-4.644;2024-02-15T03:34:18;100232.69;;;11.12;74.72
64853;BME280;56050;55.558;-4.644;2024-02-15T03:36:47;100227.28;;;11.12;74.94
64853;BME280;56050;55.558;-4.644;2024-02-15T03:39:17;100224.59;;;11.12;74.96
64853;BME280;56050;55.558;-4.644;2024-02-15T03:41:42;100232.25;;;11.13;74.91
64853;BME280;56050;55.558;-4.644;2024-02-15T03:44:11;100218.41;;;11.15;74.89
64853;BME280;56050;55.558;-4.644;2024-02-15T03:46:37;100219.16;;;11.15;74.96
64853;BME280;56050;55.558;-4.644;2024-02-15T03:49:02;100214.50;;;11.16;75.00
64853;BME280;56050;55.558;-4.644;2024-02-15T03:51:27;100209.91;;;11.16;75.12
64853;BME280;56050;55.558;-4.644;2024-02-15T03:53:53;100215.66;;;11.18;75.22
64853;BME280;56050;55.558;-4.644;2024-02-15T03:56:18;100214.84;;;11.21;74.95
64853;BME280;56050;55.558;-4.644;2024-02-15T03:58:46;100207.94;;;11.20;74.96
64853;BME280;56050;55.558;-4.644;2024-02-15T04:01:11;100206.41;;;11.19;75.14
64853;BME280;56050;55.558;-4.644;2024-02-15T04:03:40;100211.03;;;11.19;75.07
64853;BME280;56050;55.558;-4.644;2024-02-15T04:06:05;100201.00;;;11.19;75.23
64853;BME280;56050;55.558;-4.644;2024-02-15T04:08:31;100199.44;;;11.22;75.11
64853;BME280;56050;55.558;-4.644;2024-02-15T04:10:56;100198.66;;;11.21;75.37
64853;BME280;56050;55.558;-4.644;2024-02-15T04:13:23;100194.03;;;11.22;75.22
64853;BME280;56050;55.558;-4.644;2024-02-15T04:15:49;100189.41;;;11.23;75.26
64853;BME280;56050;55.558;-4.644;2024-02-15T04:18:16;100191.69;;;11.24;75.12
64853;BME280;56050;55.558;-4.644;2024-02-15T04:20:43;100187.84;;;11.25;75.40
64853;BME280;56050;55.558;-4.644;2024-02-15T04:23:11;100180.88;;;11.28;75.25
64853;BME280;56050;55.558;-4.644;2024-02-15T04:25:36;100188.59;;;11.29;75.12
64853;BME280;56050;55.558;-4.644;2024-02-15T04:28:02;100190.84;;;11.31;75.28
64853;BME280;56050;55.558;-4.644;2024-02-15T04:30:29;100182.38;;;11.32;75.33
64853;BME280;56050;55.558;-4.644;2024-02-15T04:32:55;100186.94;;;11.35;75.29
64853;BME280;56050;55.558;-4.644;2024-02-15T04:35:21;100185.00;;;11.36;75.22
64853;BME280;56050;55.558;-4.644;2024-02-15T04:37:47;100180.75;;;11.38;75.20
64853;BME280;56050;55.558;-4.644;2024-02-15T04:40:14;100184.97;;;11.39;75.34
64853;BME280;56050;55.558;-4.644;2024-02-15T04:42:40;100184.19;;;11.42;75.24
64853;BME280;56050;55.558;-4.644;2024-02-15T04:45:09;100184.53;;;11.44;75.20
64853;BME280;56050;55.558;-4.644;2024-02-15T04:47:36;100184.88;;;11.46;75.17
64853;BME280;56050;55.558;-4.644;2024-02-15T04:50:02;100179.88;;;11.48;75.29
64853;BME280;56050;55.558;-4.644;2024-02-15T04:52:29;100183.69;;;11.51;75.28
64853;BME280;56050;55.558;-4.644;2024-02-15T04:54:54;100191.34;;;11.52;75.13
64853;BME280;56050;55.558;-4.644;2024-02-15T04:57:20;100192.91;;;11.53;75.19
64853;BME280;56050;55.558;-4.644;2024-02-15T04:59:46;100178.59;;;11.56;75.19
64853;BME280;56050;55.558;-4.644;2024-02-15T05:02:13;100179.72;;;11.59;75.21
64853;BME280;56050;55.558;-4.644;2024-02-15T05:04:39;100171.22;;;11.60;75.05
64853;BME280;56050;55.558;-4.644;2024-02-15T05:07:08;100178.16;;;11.61;75.42
64853;BME280;56050;55.558;-4.644;2024-02-15T05:09:34;100170.41;;;11.63;75.23
64853;BME280;56050;55.558;-4.644;2024-02-15T05:12:01;100167.66;;;11.67;75.14
64853;BME280;56050;55.558;-4.644;2024-02-15T05:14:28;100169.59;;;11.70;75.12
64853;BME280;56050;55.558;-4.644;2024-02-15T05:16:53;100169.53;;;11.73;75.24
64853;BME280;56050;55.558;-4.644;2024-02-15T05:19:19;100169.47;;;11.77;75.50
64853;BME280;56050;55.558;-4.644;2024-02-15T05:21:45;100167.88;;;11.79;75.43
64853;BME280;56050;55.558;-4.644;2024-02-15T05:24:15;100162.44;;;11.83;75.48
64853;BME280;56050;55.558;-4.644;2024-02-15T05:26:41;100171.28;;;11.87;75.30
64853;BME280;56050;55.558;-4.644;2024-02-15T05:29:14;100167.75;;;11.90;75.31
64853;BME280;56050;55.558;-4.644;2024-02-15T05:31:40;100170.38;;;11.94;75.33
64853;BME280;56050;55.558;-4.644;2024-02-15T05:34:06;100163.41;;;11.96;75.37
64853;BME280;56050;55.558;-4.644;2024-02-15T05:36:37;100163.34;;;12.00;75.55
64853;BME280;56050;55.558;-4.644;2024-02-15T05:39:03;100163.69;;;12.02;75.40
64853;BME280;56050;55.558;-4.644;2024-02-15T05:41:30;100166.78;;;12.04;75.46
64853;BME280;56050;55.558;-4.644;2024-02-15T05:43:57;100159.03;;;12.06;75.31
64853;BME280;56050;55.558;-4.644;2024-02-15T05:46:23;100166.69;;;12.07;75.28
64853;BME280;56050;55.558;-4.644;2024-02-15T05:48:49;100159.72;;;12.10;75.54
64853;BME280;56050;55.558;-4.644;2024-02-15T05:51:16;100150.47;;;12.11;75.57
64853;BME280;56050;55.558;-4.644;2024-02-15T05:53:43;100148.53;;;12.11;75.21
64853;BME280;56050;55.558;-4.644;2024-02-15T05:56:09;100149.63;;;12.14;75.19
64853;BME280;56050;55.558;-4.644;2024-02-15T05:58:38;100145.00;;;12.14;75.33
64853;BME280;56050;55.558;-4.644;2024-02-15T06:01:05;100145.78;;;12.15;75.27
64853;BME280;56050;55.558;-4.644;2024-02-15T06:03:34;100140.38;;;12.15;75.48
64853;BME280;56050;55.558;-4.644;2024-02-15T06:06:03;100136.50;;;12.16;75.48
64853;BME280;56050;55.558;-4.644;2024-02-15T06:08:33;100138.03;;;12.17;75.50
64853;BME280;56050;55.558;-4.644;2024-02-15T06:10:59;100140.72;;;12.17;75.32
64853;BME280;56050;55.558;-4.644;2024-02-15T06:13:25;100128.00;;;12.17;75.23
64853;BME280;56050;55.558;-4.644;2024-02-15T06:15:51;100121.81;;;12.17;75.38
64853;BME280;56050;55.558;-4.644;2024-02-15T06:18:24;100115.66;;;12.16;75.48
64853;BME280;56050;55.558;-4.644;2024-02-15T06:20:50;100121.06;;;12.16;75.51
64853;BME280;56050;55.558;-4.644;2024-02-15T06:23:17;100121.06;;;12.16;75.31
64853;BME280;56050;55.558;-4.644;2024-02-15T06:25:44;100114.88;;;12.16;75.61
64853;BME280;56050;55.558;-4.644;2024-02-15T06:28:10;100121.06;;;12.16;75.65
64853;BME280;56050;55.558;-4.644;2024-02-15T06:30:45;100115.66;;;12.16;75.77
64853;BME280;56050;55.558;-4.644;2024-02-15T06:33:29;100112.19;;;12.16;75.47
64853;BME280;56050;55.558;-4.644;2024-02-15T06:36:13;100114.13;;;12.15;75.38
64853;BME280;56050;55.558;-4.644;2024-02-15T06:38:57;100111.84;;;12.14;75.41
64853;BME280;56050;55.558;-4.644;2024-02-15T06:41:40;100103.41;;;12.12;75.48
64853;BME280;56050;55.558;-4.644;2024-02-15T06:44:06;100107.25;;;12.11;75.45
64853;BME280;56050;55.558;-4.644;2024-02-15T06:46:33;100103.03;;;12.10;75.38
64853;BME280;56050;55.558;-4.644;2024-02-15T06:48:58;100098.81;;;12.09;75.55
64853;BME280;56050;55.558;-4.644;2024-02-15T06:51:24;100099.59;;;12.09;75.39
64853;BME280;56050;55.558;-4.644;2024-02-15T06:53:50;100101.91;;;12.07;75.59
64853;BME280;56050;55.558;-4.644;2024-02-15T06:56:16;100104.22;;;12.09;75.67
64853;BME280;56050;55.558;-4.644;2024-02-15T06:58:45;100102.28;;;12.09;75.69
64853;BME280;56050;55.558;-4.644;2024-02-15T07:01:11;100095.34;;;12.08;75.77
64853;BME280;56050;55.558;-4.644;2024-02-15T07:03:44;100100.31;;;12.10;75.65
64853;BME280;56050;55.558;-4.644;2024-02-15T07:06:11;100102.63;;;12.11;75.76
64853;BME280;56050;55.558;-4.644;2024-02-15T07:08:39;100096.03;;;12.12;75.62
64853;BME280;56050;55.558;-4.644;2024-02-15T07:11:06;100094.88;;;12.13;75.60
64853;BME280;56050;55.558;-4.644;2024-02-15T07:13:35;100085.19;;;12.16;75.57
64853;BME280;56050;55.558;-4.644;2024-02-15T07:16:02;100086.72;;;12.17;75.58
64853;BME280;56050;55.558;-4.644;2024-02-15T07:18:31;100086.72;;;12.17;75.48
64853;BME280;56050;55.558;-4.644;2024-02-15T07:20:56;100092.50;;;12.15;75.56
64853;BME280;56050;55.558;-4.644;2024-02-15T07:23:24;100082.91;;;12.14;75.60
64853;BME280;56050;55.558;-4.644;2024-02-15T07:25:50;100086.00;;;12.13;75.73
64853;BME280;56050;55.558;-4.644;2024-02-15T07:28:19;100084.84;;;12.14;75.64
64853;BME280;56050;55.558;-4.644;2024-02-15T07:30:46;100088.69;;;12.13;75.62
64853;BME280;56050;55.558;-4.644;2024-02-15T07:33:14;100084.06;;;12.13;75.45
64853;BME280;56050;55.558;-4.644;2024-02-15T07:35:43;100082.13;;;12.14;75.79
64853;BME280;56050;55.558;-4.644;2024-02-15T07:38:09;100080.22;;;12.14;75.56
64853;BME280;56050;55.558;-4.644;2024-02-15T07:40:35;100087.13;;;12.15;75.72
64853;BME280;56050;55.558;-4.644;2024-02-15T07:43:00;100089.41;;;12.17;75.56
64853;BME280;56050;55.558;-4.644;2024-02-15T07:45:28;100088.22;;;12.18;75.70
64853;BME280;56050;55.558;-4.644;2024-02-15T07:47:54;100087.41;;;12.21;75.61
64853;BME280;56050;55.558;-4.644;2024-02-15T07:50:20;100086.25;;;12.22;75.71
64853;BME280;56050;55.558;-4.644;2024-02-15T07:52:49;100082.38;;;12.23;75.51
64853;BME280;56050;55.558;-4.644;2024-02-15T07:55:14;100083.88;;;12.24;75.58
64853;BME280;56050;55.558;-4.644;2024-02-15T07:57:40;100075.38;;;12.25;75.77
64853;BME280;56050;55.558;-4.644;2024-02-15T08:00:07;100088.13;;;12.25;75.67
64853;BME280;56050;55.558;-4.644;2024-02-15T08:02:37;100087.69;;;12.26;75.86
64853;BME280;56050;55.558;-4.644;2024-02-15T08:05:06;100095.41;;;12.28;75.79
64853;BME280;56050;55.558;-4.644;2024-02-15T08:07:36;100095.41;;;12.28;75.70
64853;BME280;56050;55.558;-4.644;2024-02-15T08:10:02;100095.75;;;12.30;75.55
64853;BME280;56050;55.558;-4.644;2024-02-15T08:12:29;100092.28;;;12.29;75.67
64853;BME280;56050;55.558;-4.644;2024-02-15T08:14:55;100099.22;;;12.30;75.76
64853;BME280;56050;55.558;-4.644;2024-02-15T08:17:20;100088.41;;;12.30;75.71
64853;BME280;56050;55.558;-4.644;2024-02-15T08:19:46;100084.53;;;12.31;75.62
64853;BME280;56050;55.558;-4.644;2024-02-15T08:22:11;100086.06;;;12.32;75.60
64853;BME280;56050;55.558;-4.644;2024-02-15T08:24:37;100084.53;;;12.31;75.76
64853;BME280;56050;55.558;-4.644;2024-02-15T08:27:02;100083.34;;;12.32;75.82
64853;BME280;56050;55.558;-4.644;2024-02-15T08:29:30;100078.72;;;12.33;75.82
64853;BME280;56050;55.558;-4.644;2024-02-15T08:31:55;100071.38;;;12.33;75.69
64853;BME280;56050;55.558;-4.644;2024-02-15T08:34:21;100072.88;;;12.34;75.88
64853;BME280;56050;55.558;-4.644;2024-02-15T08:36:46;100077.13;;;12.35;75.92
64853;BME280;56050;55.558;-4.644;2024-02-15T08:39:13;100084.06;;;12.36;75.70
64853;BME280;56050;55.558;-4.644;2024-02-15T08:41:41;100074.38;;;12.39;75.86
64853;BME280;56050;55.558;-4.644;2024-02-15T08:44:07;100077.41;;;12.41;75.70
64853;BME280;56050;55.558;-4.644;2024-02-15T08:46:37;100070.06;;;12.42;75.57
64853;BME280;56050;55.558;-4.644;2024-02-15T08:49:02;100080.44;;;12.43;75.58
64853;BME280;56050;55.558;-4.644;2024-02-15T08:51:29;100073.88;;;12.44;75.57
64853;BME280;56050;55.558;-4.644;2024-02-15T08:53:55;100072.72;;;12.45;75.52
64853;BME280;56050;55.558;-4.644;2024-02-15T08:56:21;100078.47;;;12.47;75.72
64853;BME280;56050;55.558;-4.644;2024-02-15T08:58:48;100077.28;;;12.48;75.55
64853;BME280;56050;55.558;-4.644;2024-02-15T09:01:14;100070.34;;;12.47;75.72
64853;BME280;56050;55.558;-4.644;2024-02-15T09:03:40;100073.81;;;12.48;75.61
64853;BME280;56050;55.558;-4.644;2024-02-15T09:06:05;100063.78;;;12.48;75.70
64853;BME280;56050;55.558;-4.644;2024-02-15T09:08:33;100059.13;;;12.49;75.66
64853;BME280;56050;55.558;-4.644;2024-02-15T09:10:58;100069.53;;;12.50;75.65
64853;BME280;56050;55.558;-4.644;2024-02-15T09:13:24;100060.22;;;12.51;75.74
64853;BME280;56050;55.558;-4.644;2024-02-15T09:15:50;100061.75;;;12.52;75.79
64853;BME280;56050;55.558;-4.644;2024-02-15T09:18:16;100062.53;;;12.53;75.54
64853;BME280;56050;55.558;-4.644;2024-02-15T09:20:43;100054.00;;;12.54;75.63
64853;BME280;56050;55.558;-4.644;2024-02-15T09:23:12;100057.13;;;12.53;75.74
64853;BME280;56050;55.558;-4.644;2024-02-15T09:25:40;100057.13;;;12.53;75.76
64853;BME280;56050;55.558;-4.644;2024-02-15T09:28:08;100056.38;;;12.52;75.74
64853;BME280;56050;55.558;-4.644;2024-02-15T09:30:33;100053.31;;;12.50;75.81
64853;BME280;56050;55.558;-4.644;2024-02-15T09:33:01;100056.03;;;12.50;75.73
64853;BME280;56050;55.558;-4.644;2024-02-15T09:35:28;100048.31;;;12.49;75.76
64853;BME280;56050;55.558;-4.644;2024-02-15T09:37:55;100048.31;;;12.49;75.75
64853;BME280;56050;55.558;-4.644;2024-02-15T09:40:21;100038.72;;;12.48;75.84
64853;BME280;56050;55.558;-4.644;2024-02-15T09:42:49;100034.41;;;12.50;75.69
64853;BME280;56050;55.558;-4.644;2024-02-15T09:45:16;100035.91;;;12.51;75.66
64853;BME280;56050;55.558;-4.644;2024-02-15T09:47:45;100029.78;;;12.51;75.74
64853;BME280;56050;55.558;-4.644;2024-02-15T09:50:11;100030.50;;;12.51;75.91
64853;BME280;56050;55.558;-4.644;2024-02-15T09:52:39;100030.88;;;12.53;75.98
64853;BME280;56050;55.558;-4.644;2024-02-15T09:55:07;100026.25;;;12.54;75.72
64853;BME280;56050;55.558;-4.644;2024-02-15T09:57:36;100020.41;;;12.55;75.89
64853;BME280;56050;55.558;-4.644;2024-02-15T10:00:01;100021.94;;;12.56;75.69
64853;BME280;56050;55.558;-4.644;2024-02-15T10:02:34;100020.41;;;12.55;75.67
64853;BME280;56050;55.558;-4.644;2024-02-15T10:05:02;100023.13;;;12.55;75.97
64853;BME280;56050;55.558;-4.644;2024-02-15T10:07:27;100029.28;;;12.56;75.96
64853;BME280;56050;55.558;-4.644;2024-02-15T10:09:54;100020.06;;;12.53;76.05
64853;BME280;56050;55.558;-4.644;2024-02-15T10:12:19;100011.59;;;12.51;75.88
64853;BME280;56050;55.558;-4.644;2024-02-15T10:14:49;100016.59;;;12.53;75.88
64853;BME280;56050;55.558;-4.644;2024-02-15T10:17:20;100022.41;;;12.51;75.86
64853;BME280;56050;55.558;-4.644;2024-02-15T10:20:03;100013.13;;;12.52;76.05
64853;BME280;56050;55.558;-4.644;2024-02-15T10:22:28;100026.97;;;12.54;75.72
64853;BME280;56050;55.558;-4.644;2024-02-15T10:25:10;100033.16;;;12.55;75.96
64853;BME280;56050;55.558;-4.644;2024-02-15T10:27:36;100034.25;;;12.57;75.99
64853;BME280;56050;55.558;-4.644;2024-02-15T10:30:19;100043.91;;;12.58;75.89
64853;BME280;56050;55.558;-4.644;2024-02-15T10:32:45;100036.56;;;12.59;75.85
64853;BME280;56050;55.558;-4.644;2024-02-15T10:35:21;100036.13;;;12.60;75.77
64853;BME280;56050;55.558;-4.644;2024-02-15T10:37:51;100028.78;;;12.61;75.89
64853;BME280;56050;55.558;-4.644;2024-02-15T10:40:18;100025.25;;;12.64;75.70
64853;BME280;56050;55.558;-4.644;2024-02-15T10:42:47;100023.31;;;12.64;75.58
64853;BME280;56050;55.558;-4.644;2024-02-15T10:45:13;100032.53;;;12.67;75.69
64853;BME280;56050;55.558;-4.644;2024-02-15T10:47:40;100026.38;;;12.66;75.69
64853;BME280;56050;55.558;-4.644;2024-02-15T10:50:07;100025.59;;;12.66;75.93
64853;BME280;56050;55.558;-4.644;2024-02-15T10:52:37;100028.72;;;12.64;75.82
64853;BME280;56050;55.558;-4.644;2024-02-15T10:55:08;100015.22;;;12.64;75.54
64853;BME280;56050;55.558;-4.644;2024-02-15T10:57:40;100022.13;;;12.65;75.62
64853;BME280;56050;55.558;-4.644;2024-02-15T11:00:08;100018.25;;;12.66;75.82
64853;BME280;56050;55.558;-4.644;2024-02-15T11:03:04;100020.13;;;12.69;75.98
64853;BME280;56050;55.558;-4.644;2024-02-15T11:05:37;100020.81;;;12.73;75.56
64853;BME280;56050;55.558;-4.644;2024-02-15T11:08:08;100022.69;;;12.76;75.71
64853;BME280;56050;55.558;-4.644;2024-02-15T11:10:35;100028.34;;;12.82;75.66
64853;BME280;56050;55.558;-4.644;2024-02-15T11:13:02;100020.19;;;12.85;75.57
64853;BME280;56050;55.558;-4.644;2024-02-15T11:15:54;100020.13;;;12.89;75.48
64853;BME280;56050;55.558;-4.644;2024-02-15T11:18:57;100016.97;;;12.90;75.46
64853;BME280;56050;55.558;-4.644;2024-02-15T11:21:53;100021.97;;;12.92;75.65
64853;BME280;56050;55.558;-4.644;2024-02-15T11:24:25;100017.31;;;12.92;75.26
64853;BME280;56050;55.558;-4.644;2024-02-15T11:26:50;100014.97;;;12.94;75.44
64853;BME280;56050;55.558;-4.644;2024-02-15T11:32:47;100012.94;;;12.98;75.29
64853;BME280;56050;55.558;-4.644;2024-02-15T11:35:17;100015.25;;;13.00;75.44
64853;BME280;56050;55.558;-4.644;2024-02-15T11:40:25;100016.28;;;13.06;75.29
64853;BME280;56050;55.558;-4.644;2024-02-15T11:42:53;100012.31;;;13.11;75.44
64853;BME280;56050;55.558;-4.644;2024-02-15T11:45:20;100019.16;;;13.15;75.43
64853;BME280;56050;55.558;-4.644;2024-02-15T11:47:50;100019.44;;;13.21;75.19
64853;BME280;56050;55.558;-4.644;2024-02-15T11:50:17;100012.34;;;13.27;75.28
64853;BME280;56050;55.558;-4.644;2024-02-15T11:52:52;100016.16;;;13.29;75.38
64853;BME280;56050;55.558;-4.644;2024-02-15T11:55:34;100012.59;;;13.32;75.29
64853;BME280;56050;55.558;-4.644;2024-02-15T11:58:02;100015.25;;;13.36;75.22
64853;BME280;56050;55.558;-4.644;2024-02-15T12:00:31;100018.59;;;13.40;75.06
64853;BME280;56050;55.558;-4.644;2024-02-15T12:03:16;100018.88;;;13.45;75.00
64853;BME280;56050;55.558;-4.644;2024-02-15T12:06:00;100022.66;;;13.48;74.86
64853;BME280;56050;55.558;-4.644;2024-02-15T12:08:49;100026.47;;;13.50;74.73
64853;BME280;56050;55.558;-4.644;2024-02-15T12:11:33;100026.47;;;13.50;74.84
64853;BME280;56050;55.558;-4.644;2024-02-15T12:14:18;100025.28;;;13.51;75.10
64853;BME280;56050;55.558;-4.644;2024-02-15T12:19:49;100031.56;;;13.48;74.85
64853;BME280;56050;55.558;-4.644;2024-02-15T12:22:18;100028.06;;;13.48;74.84
64853;BME280;56050;55.558;-4.644;2024-02-15T12:24:55;100032.41;;;13.45;74.90
64853;BME280;56050;55.558;-4.644;2024-02-15T12:27:21;100034.34;;;13.45;74.98
64853;BME280;56050;55.558;-4.644;2024-02-15T12:29:57;100032.06;;;13.43;75.11
64853;BME280;56050;55.558;-4.644;2024-02-15T12:32:24;100036.72;;;13.43;75.03
64853;BME280;56050;55.558;-4.644;2024-02-15T12:34:53;100039.06;;;13.41;75.10
64853;BME280;56050;55.558;-4.644;2024-02-15T12:37:20;100040.69;;;13.38;75.03
64853;BME280;56050;55.558;-4.644;2024-02-15T12:39:47;100040.69;;;13.38;75.06
64853;BME280;56050;55.558;-4.644;2024-02-15T12:42:13;100040.34;;;13.36;75.04
64853;BME280;56050;55.558;-4.644;2024-02-15T12:44:43;100047.78;;;13.32;75.08
64853;BME280;56050;55.558;-4.644;2024-02-15T12:47:17;100027.31;;;13.31;75.12
64853;BME280;56050;55.558;-4.644;2024-02-15T12:49:42;100031.63;;;13.29;74.93
64853;BME280;56050;55.558;-4.644;2024-02-15T12:52:37;100026.72;;;13.24;75.09
64853;BME280;56050;55.558;-4.644;2024-02-15T12:55:15;100023.25;;;13.23;75.30